createdAt,value
2022-10-24T00:01:13.950Z,4.53
2022-10-24T00:03:40.949Z,4.49
2022-10-24T00:06:10.999Z,4.48
2022-10-24T00:08:38.772Z,4.48
2022-10-24T00:11:15.724Z,4.46
2022-10-24T00:13:43.611Z,4.42
2022-10-24T00:16:11.608Z,4.34
2022-10-24T00:18:38.981Z,4.28
2022-10-24T00:21:07.161Z,4.30
2022-10-24T00:23:34.670Z,4.29
2022-10-24T00:26:02.152Z,4.34
2022-10-24T00:28:29.592Z,4.38
2022-10-24T00:30:56.863Z,4.38
2022-10-24T00:33:24.379Z,4.37
2022-10-24T00:35:51.528Z,4.38
2022-10-24T00:38:18.620Z,4.36
2022-10-24T00:40:45.619Z,4.37
2022-10-24T00:43:24.835Z,4.37
2022-10-24T00:45:59.888Z,4.35
2022-10-24T00:48:42.325Z,4.33
2022-10-24T00:51:22.480Z,4.32
2022-10-24T00:53:51.880Z,4.32
2022-10-24T00:56:22.162Z,4.31
2022-10-24T00:58:49.593Z,4.30
2022-10-24T01:01:16.753Z,4.28
2022-10-24T01:03:43.890Z,4.23
2022-10-24T01:06:28.365Z,4.23
2022-10-24T01:09:06.643Z,4.16
2022-10-24T01:11:52.130Z,4.18
2022-10-24T01:14:22.892Z,4.13
2022-10-24T01:17:05.821Z,4.08
2022-10-24T01:19:47.824Z,4.06
2022-10-24T01:22:22.648Z,4.05
2022-10-24T01:24:49.386Z,4.03
2022-10-24T01:27:39.613Z,4.03
2022-10-24T01:30:09.985Z,4.03
2022-10-24T01:32:58.676Z,4.05
2022-10-24T01:35:36.604Z,4.01
2022-10-24T01:38:14.029Z,3.98
2022-10-24T01:40:46.504Z,3.97
2022-10-24T01:43:15.566Z,3.98
2022-10-24T01:45:46.489Z,4.00
2022-10-24T01:48:16.892Z,4.04
2022-10-24T01:50:45.667Z,4.01
2022-10-24T01:53:13.703Z,4.01
2022-10-24T01:55:41.451Z,3.97
2022-10-24T01:58:09.048Z,3.95
2022-10-24T02:00:36.181Z,3.91
2022-10-24T02:03:18.470Z,3.92
2022-10-24T02:05:49.518Z,3.88
2022-10-24T02:08:20.039Z,3.90
2022-10-24T02:10:50.660Z,3.86
2022-10-24T02:13:45.245Z,3.88
2022-10-24T02:16:13.250Z,3.86
2022-10-24T02:18:40.535Z,3.86
2022-10-24T02:21:10.135Z,3.84
2022-10-24T02:23:44.197Z,3.83
2022-10-24T02:26:18.111Z,3.80
2022-10-24T02:28:46.420Z,3.82
2022-10-24T02:31:21.985Z,3.80
2022-10-24T02:33:50.227Z,3.79
2022-10-24T02:36:19.472Z,3.82
2022-10-24T02:38:48.256Z,3.83
2022-10-24T02:41:20.667Z,3.81
2022-10-24T02:43:50.513Z,3.84
2022-10-24T02:46:18.768Z,3.83
2022-10-24T02:48:49.974Z,3.85
2022-10-24T02:51:18.771Z,3.84
2022-10-24T02:53:46.465Z,3.85
2022-10-24T02:56:13.559Z,3.80
2022-10-24T02:58:41.061Z,3.77
2022-10-24T03:01:08.156Z,3.69
2022-10-24T03:03:35.207Z,3.61
2022-10-24T03:06:02.250Z,3.62
2022-10-24T03:08:29.188Z,3.63
2022-10-24T03:10:56.351Z,3.55
2022-10-24T03:13:23.384Z,3.61
2022-10-24T03:15:50.264Z,3.63
2022-10-24T03:18:17.307Z,3.66
2022-10-24T03:20:44.336Z,3.68
2022-10-24T03:23:13.113Z,3.74
2022-10-24T03:25:40.102Z,3.77
2022-10-24T03:28:10.014Z,3.85
2022-10-24T03:30:36.945Z,3.84
2022-10-24T03:33:03.992Z,3.85
2022-10-24T03:35:31.014Z,3.86
2022-10-24T03:37:57.938Z,3.86
2022-10-24T03:40:24.838Z,3.85
2022-10-24T03:42:51.883Z,3.87
2022-10-24T03:45:18.974Z,3.89
2022-10-24T03:47:45.853Z,3.91
2022-10-24T03:50:12.861Z,3.90
2022-10-24T03:52:39.785Z,3.90
2022-10-24T03:55:07.105Z,3.88
2022-10-24T03:57:34.143Z,3.83
2022-10-24T04:00:01.060Z,3.83
2022-10-24T04:02:28.189Z,3.82
2022-10-24T04:04:55.320Z,3.84
2022-10-24T04:07:22.640Z,3.87
2022-10-24T04:09:49.742Z,3.90
2022-10-24T04:12:16.828Z,3.89
2022-10-24T04:14:43.759Z,3.87
2022-10-24T04:17:12.516Z,3.84
2022-10-24T04:19:39.572Z,3.83
2022-10-24T04:22:06.616Z,3.83
2022-10-24T04:24:33.734Z,3.84
2022-10-24T04:27:03.544Z,3.85
2022-10-24T04:29:30.439Z,3.84
2022-10-24T04:31:57.499Z,3.87
2022-10-24T04:34:24.611Z,3.84
2022-10-24T04:36:51.610Z,3.85
2022-10-24T04:39:19.929Z,3.85
2022-10-24T04:41:47.110Z,3.88
2022-10-24T04:44:14.164Z,3.89
2022-10-24T04:46:43.255Z,3.91
2022-10-24T04:49:10.511Z,3.94
2022-10-24T04:51:37.483Z,3.93
2022-10-24T04:54:04.787Z,4.01
2022-10-24T04:56:32.024Z,4.01
2022-10-24T04:58:58.987Z,4.02
2022-10-24T05:01:25.915Z,4.02
2022-10-24T05:03:53.145Z,4.05
2022-10-24T05:06:20.255Z,4.06
2022-10-24T05:08:47.280Z,4.08
2022-10-24T05:11:17.204Z,4.10
2022-10-24T05:13:44.238Z,4.11
2022-10-24T05:16:11.244Z,4.09
2022-10-24T05:18:38.314Z,4.09
2022-10-24T05:21:05.520Z,4.13
2022-10-24T05:23:32.523Z,4.14
2022-10-24T05:25:59.700Z,4.13
2022-10-24T05:28:29.180Z,4.13
2022-10-24T05:30:56.177Z,4.21
2022-10-24T05:33:23.755Z,4.25
2022-10-24T05:35:51.552Z,4.24
2022-10-24T05:38:18.588Z,4.23
2022-10-24T05:40:49.621Z,4.22
2022-10-24T05:43:16.747Z,4.19
2022-10-24T05:45:44.065Z,4.22
2022-10-24T05:48:11.120Z,4.25
2022-10-24T05:50:38.268Z,4.27
2022-10-24T05:53:05.367Z,4.33
2022-10-24T05:55:33.843Z,4.32
2022-10-24T05:58:00.942Z,4.35
2022-10-24T06:00:28.354Z,4.41
2022-10-24T06:02:55.406Z,4.42
2022-10-24T06:05:22.707Z,4.45
2022-10-24T06:07:49.673Z,4.45
2022-10-24T06:10:16.859Z,4.49
2022-10-24T06:12:44.249Z,4.49
2022-10-24T06:15:15.304Z,4.52
2022-10-24T06:17:42.383Z,4.56
2022-10-24T06:20:10.022Z,4.63
2022-10-24T06:22:36.953Z,4.64
2022-10-24T06:25:04.354Z,4.61
2022-10-24T06:27:31.451Z,4.57
2022-10-24T06:29:58.468Z,4.61
2022-10-24T06:32:25.467Z,4.73
2022-10-24T06:34:52.425Z,4.83
2022-10-24T06:37:19.340Z,4.91
2022-10-24T06:39:46.557Z,4.92
2022-10-24T06:42:13.517Z,4.96
2022-10-24T06:44:41.761Z,4.93
2022-10-24T06:47:09.051Z,4.99
2022-10-24T06:49:35.988Z,5.00
2022-10-24T06:52:02.917Z,4.99
2022-10-24T06:54:31.714Z,4.94
2022-10-24T06:56:58.682Z,4.91
2022-10-24T06:59:25.824Z,4.92
2022-10-24T07:01:52.980Z,5.22
2022-10-24T07:04:20.182Z,5.48
2022-10-24T07:06:47.180Z,5.53
2022-10-24T07:09:17.355Z,5.59
2022-10-24T07:11:44.964Z,5.62
2022-10-24T07:14:12.359Z,5.56
2022-10-24T07:16:39.776Z,5.50
2022-10-24T07:19:06.992Z,5.47
2022-10-24T07:21:34.738Z,5.48
2022-10-24T07:24:03.222Z,5.45
2022-10-24T07:26:31.284Z,5.35
2022-10-24T07:31:35.473Z,5.28
2022-10-24T07:34:04.443Z,5.36
2022-10-24T07:36:31.461Z,5.46
2022-10-24T07:38:59.548Z,5.55
2022-10-24T07:41:30.363Z,5.45
2022-10-24T07:43:58.531Z,6.28
2022-10-24T07:46:26.288Z,6.30
2022-10-24T07:48:53.900Z,7.03
2022-10-24T07:51:21.408Z,7.68
2022-10-24T07:53:48.931Z,7.87
2022-10-24T07:56:17.920Z,8.21
2022-10-24T07:58:46.514Z,7.75
2022-10-24T08:01:25.248Z,7.79
2022-10-24T08:03:52.385Z,7.87
2022-10-24T08:06:22.788Z,7.38
2022-10-24T08:08:49.877Z,6.99
2022-10-24T08:11:28.381Z,6.55
2022-10-24T08:13:57.714Z,6.22
2022-10-24T08:16:25.384Z,6.12
2022-10-24T08:18:53.884Z,6.15
2022-10-24T08:21:22.909Z,6.19
2022-10-24T08:23:52.373Z,6.16
2022-10-24T08:26:21.646Z,6.27
2022-10-24T08:28:49.247Z,6.21
2022-10-24T08:31:19.211Z,6.12
2022-10-24T08:33:46.753Z,6.17
2022-10-24T08:36:17.825Z,6.21
2022-10-24T08:38:45.240Z,6.32
2022-10-24T08:41:24.884Z,6.39
2022-10-24T08:43:53.628Z,6.69
2022-10-24T08:46:42.091Z,6.71
2022-10-24T08:49:23.734Z,6.47
2022-10-24T08:52:21.963Z,6.34
2022-10-24T08:54:50.323Z,6.27
2022-10-24T08:57:23.409Z,6.34
2022-10-24T08:59:52.645Z,6.48
2022-10-24T09:02:27.436Z,6.65
2022-10-24T09:04:58.590Z,6.52
2022-10-24T09:07:26.933Z,6.48
2022-10-24T09:10:11.095Z,6.54
2022-10-24T09:12:40.261Z,6.50
2022-10-24T09:15:23.004Z,6.46
2022-10-24T09:17:51.381Z,6.26
2022-10-24T09:20:31.988Z,6.01
2022-10-24T09:23:02.447Z,5.83
2022-10-24T09:25:34.069Z,5.51
2022-10-24T09:28:06.522Z,5.23
2022-10-24T09:30:36.761Z,5.03
2022-10-24T09:33:31.355Z,4.83
2022-10-24T09:36:03.673Z,4.76
2022-10-24T09:38:42.163Z,4.72
2022-10-24T09:41:18.026Z,4.73
2022-10-24T09:43:47.545Z,4.89
2022-10-24T09:46:37.873Z,5.12
2022-10-24T09:49:20.717Z,5.34
2022-10-24T09:51:51.446Z,5.32
2022-10-24T09:54:19.059Z,5.18
2022-10-24T09:57:08.700Z,5.17
2022-10-24T09:59:42.352Z,5.22
2022-10-24T10:02:34.885Z,5.21
2022-10-24T10:05:05.445Z,5.04
2022-10-24T10:07:38.578Z,5.05
2022-10-24T10:10:30.453Z,5.27
2022-10-24T10:13:01.002Z,5.39
2022-10-24T10:15:37.711Z,5.47
2022-10-24T10:18:24.283Z,5.56
2022-10-24T10:21:22.206Z,5.61
2022-10-24T10:23:52.143Z,5.78
2022-10-24T10:26:24.537Z,5.80
2022-10-24T10:29:03.356Z,5.93
2022-10-24T10:31:44.072Z,5.97
2022-10-24T10:34:22.774Z,5.92
2022-10-24T10:37:11.552Z,6.02
2022-10-24T10:40:16.473Z,8.66
2022-10-24T10:43:20.924Z,10.40
2022-10-24T10:46:29.906Z,9.47
2022-10-24T10:49:15.243Z,8.19
2022-10-24T10:51:51.981Z,7.40
2022-10-24T10:54:41.136Z,6.82
2022-10-24T10:57:21.020Z,6.57
2022-10-24T11:00:13.715Z,6.44
2022-10-24T11:03:35.331Z,6.36
2022-10-24T11:06:10.987Z,6.54
2022-10-24T11:09:04.100Z,7.68
2022-10-24T11:15:14.657Z,10.39
2022-10-24T11:17:56.988Z,12.34
2022-10-24T11:20:37.256Z,13.42
2022-10-24T11:23:10.111Z,14.55
2022-10-24T11:25:49.684Z,15.04
2022-10-24T11:28:41.238Z,15.29
2022-10-24T11:31:13.918Z,14.31
2022-10-24T11:33:47.307Z,12.14
2022-10-24T11:36:46.471Z,12.99
2022-10-24T11:39:25.975Z,14.61
2022-10-24T11:41:58.921Z,14.71
2022-10-24T11:44:50.395Z,15.36
2022-10-24T11:47:26.653Z,16.10
2022-10-24T11:50:25.636Z,17.07
2022-10-24T11:52:56.444Z,17.44
2022-10-24T11:55:47.231Z,17.32
2022-10-24T11:58:19.123Z,13.30
2022-10-24T12:00:51.794Z,11.06
2022-10-24T12:03:36.426Z,9.73
2022-10-24T12:06:28.226Z,8.84
2022-10-24T12:09:30.854Z,8.82
2022-10-24T12:12:08.190Z,8.28
2022-10-24T12:14:35.288Z,9.20
2022-10-24T12:17:18.548Z,9.01
2022-10-24T12:19:51.699Z,10.77
2022-10-24T12:25:15.863Z,13.34
2022-10-24T12:27:43.178Z,13.24
2022-10-24T12:30:12.942Z,13.71
2022-10-24T12:32:45.230Z,13.70
2022-10-24T12:35:31.747Z,14.37
2022-10-24T12:37:59.785Z,14.53
2022-10-24T12:40:45.368Z,13.84
2022-10-24T12:43:17.649Z,13.76
2022-10-24T12:45:44.761Z,14.08
2022-10-24T12:48:25.850Z,14.38
2022-10-24T12:51:28.600Z,14.91
2022-10-24T12:54:04.462Z,15.18
2022-10-24T12:56:34.118Z,14.95
2022-10-24T12:59:02.365Z,15.27
2022-10-24T13:01:35.740Z,15.05
2022-10-24T13:04:13.525Z,14.57
2022-10-24T13:07:09.776Z,14.55
2022-10-24T13:10:07.798Z,14.59
2022-10-24T13:13:03.216Z,14.19
2022-10-24T13:15:51.310Z,12.89
2022-10-24T13:18:42.873Z,11.04
2022-10-24T13:21:22.277Z,9.84
2022-10-24T13:23:49.880Z,8.65
2022-10-24T13:26:40.020Z,7.78
2022-10-24T13:29:13.874Z,7.31
2022-10-24T13:31:44.688Z,6.95
2022-10-24T13:34:17.534Z,6.80
2022-10-24T13:36:46.441Z,6.68
2022-10-24T13:39:19.509Z,6.44
2022-10-24T13:41:55.948Z,6.33
2022-10-24T13:44:30.534Z,6.15
2022-10-24T13:47:17.680Z,6.04
2022-10-24T13:49:56.736Z,6.06
2022-10-24T13:52:45.629Z,5.96
2022-10-24T13:55:19.005Z,5.79
2022-10-24T13:58:23.897Z,5.67
2022-10-24T14:00:52.304Z,5.46
2022-10-24T14:03:21.201Z,5.35
2022-10-24T14:05:50.385Z,5.20
2022-10-24T14:08:24.713Z,5.18
2022-10-24T14:10:53.432Z,5.06
2022-10-24T14:13:21.968Z,5.02
2022-10-24T14:15:50.921Z,4.89
2022-10-24T14:18:20.511Z,4.84
2022-10-24T14:21:02.870Z,4.74
2022-10-24T14:23:35.719Z,4.66
2022-10-24T14:26:07.986Z,4.52
2022-10-24T14:28:38.504Z,4.48
2022-10-24T14:31:08.688Z,4.48
2022-10-24T14:33:44.422Z,4.41
2022-10-24T14:36:12.676Z,4.33
2022-10-24T14:38:40.022Z,4.30
2022-10-24T14:41:10.349Z,4.21
2022-10-24T14:43:42.280Z,4.15
2022-10-24T14:46:12.665Z,4.12
2022-10-24T14:48:42.915Z,4.10
2022-10-24T14:51:39.259Z,4.03
2022-10-24T14:54:32.674Z,3.97
2022-10-24T14:57:00.912Z,3.84
2022-10-24T14:59:37.654Z,3.82
2022-10-24T15:02:21.441Z,3.70
2022-10-24T15:04:52.119Z,3.66
2022-10-24T15:08:16.544Z,3.62
2022-10-24T15:10:42.732Z,3.47
2022-10-24T15:13:12.412Z,3.51
2022-10-24T15:15:45.204Z,3.53
2022-10-24T15:18:18.239Z,3.49
2022-10-24T15:20:47.417Z,3.38
2022-10-24T15:23:31.273Z,3.37
2022-10-24T15:26:09.760Z,3.30
2022-10-24T15:29:08.770Z,3.18
2022-10-24T15:31:38.994Z,3.03
2022-10-24T15:34:08.925Z,2.98
2022-10-24T15:36:37.039Z,2.96
2022-10-24T15:39:08.080Z,2.88
2022-10-24T15:41:35.068Z,2.88
2022-10-24T15:44:03.286Z,2.86
2022-10-24T15:46:30.782Z,2.82
2022-10-24T15:48:57.832Z,2.80
2022-10-24T15:51:26.873Z,2.81
2022-10-24T15:53:54.315Z,2.70
2022-10-24T15:56:21.799Z,2.72
2022-10-24T16:01:30.491Z,2.41
2022-10-24T16:03:58.504Z,2.49
2022-10-24T16:06:26.425Z,2.61
2022-10-24T16:08:53.715Z,2.63
2022-10-24T16:11:21.698Z,2.59
2022-10-24T16:13:49.299Z,2.46
2022-10-24T16:16:16.378Z,2.38
2022-10-24T16:18:43.449Z,2.30
2022-10-24T16:21:18.376Z,2.31
2022-10-24T16:23:46.128Z,2.31
2022-10-24T16:26:13.403Z,2.24
2022-10-24T16:28:40.550Z,2.22
2022-10-24T16:31:07.757Z,2.17
2022-10-24T16:33:34.976Z,2.15
2022-10-24T16:36:02.046Z,2.08
2022-10-24T16:38:29.388Z,1.99
2022-10-24T16:40:56.560Z,1.85
2022-10-24T16:43:23.543Z,1.68
2022-10-24T16:46:01.469Z,1.56
2022-10-24T16:48:32.192Z,1.44
2022-10-24T16:50:59.457Z,1.37
2022-10-24T16:53:29.828Z,1.36
2022-10-24T16:55:56.920Z,1.22
2022-10-24T16:58:24.097Z,1.14
2022-10-24T17:00:51.157Z,1.12
2022-10-24T17:03:20.880Z,1.10
2022-10-24T17:05:52.343Z,1.12
2022-10-24T17:08:19.517Z,1.08
2022-10-24T17:10:46.497Z,1.15
2022-10-24T17:13:14.558Z,1.19
2022-10-24T17:15:44.136Z,1.16
2022-10-24T17:18:12.531Z,1.17
2022-10-24T17:20:44.710Z,1.17
2022-10-24T17:23:13.824Z,1.14
2022-10-24T17:25:41.516Z,1.17
2022-10-24T17:28:08.655Z,1.13
2022-10-24T17:30:36.933Z,1.10
2022-10-24T17:33:03.960Z,1.12
2022-10-24T17:35:32.357Z,1.14
2022-10-24T17:38:26.315Z,1.08
2022-10-24T17:40:54.878Z,0.91
2022-10-24T17:43:26.763Z,1.02
2022-10-24T17:46:05.192Z,0.91
2022-10-24T17:48:35.693Z,0.89
2022-10-24T17:51:03.025Z,0.85
2022-10-24T17:53:29.943Z,0.78
2022-10-24T17:55:57.719Z,0.81
2022-10-24T17:58:25.500Z,0.84
2022-10-24T18:00:52.505Z,0.79
2022-10-24T18:03:20.310Z,0.69
2022-10-24T18:05:48.411Z,0.62
2022-10-24T18:08:17.549Z,0.48
2022-10-24T18:10:45.547Z,0.49
2022-10-24T18:13:14.729Z,0.35
2022-10-24T18:15:41.675Z,0.29
2022-10-24T18:18:09.012Z,0.19
2022-10-24T18:20:36.282Z,0.08
2022-10-24T18:23:04.126Z,-0.06
2022-10-24T18:25:32.419Z,-0.05
2022-10-24T18:28:02.742Z,-0.06
2022-10-24T18:30:35.508Z,-0.17
2022-10-24T18:33:02.939Z,-0.15
2022-10-24T18:35:33.217Z,-0.11
2022-10-24T18:38:00.501Z,-0.24
2022-10-24T18:40:27.982Z,-0.39
2022-10-24T18:43:06.596Z,-0.37
2022-10-24T18:45:36.271Z,-0.40
2022-10-24T18:48:04.099Z,-0.34
2022-10-24T18:50:32.406Z,-0.41
2022-10-24T18:53:20.035Z,-0.33
2022-10-24T18:56:02.575Z,-0.43
2022-10-24T18:58:32.782Z,-0.47
2022-10-24T19:01:00.662Z,-0.60
2022-10-24T19:03:33.727Z,-0.51
2022-10-24T19:06:22.889Z,-0.59
2022-10-24T19:08:57.161Z,-0.67
2022-10-24T19:11:41.159Z,-0.88
2022-10-24T19:14:08.325Z,-0.82
2022-10-24T19:16:35.320Z,-0.95
2022-10-24T19:19:02.974Z,-0.81
2022-10-24T19:21:30.700Z,-0.90
2022-10-24T19:23:57.830Z,-0.89
2022-10-24T19:26:24.852Z,-0.98
2022-10-24T19:28:51.867Z,-0.95
2022-10-24T19:31:19.204Z,-0.98
2022-10-24T19:33:46.214Z,-1.06
2022-10-24T19:36:19.055Z,-1.08
2022-10-24T19:38:46.604Z,-1.04
2022-10-24T19:41:16.720Z,-0.98
2022-10-24T19:43:43.610Z,-1.04
2022-10-24T19:46:26.199Z,-1.11
2022-10-24T19:48:53.331Z,-1.19
2022-10-24T19:51:25.198Z,-1.29
2022-10-24T19:53:52.405Z,-1.20
2022-10-24T19:56:25.200Z,-1.24
2022-10-24T19:58:54.973Z,-1.34
2022-10-24T20:01:24.674Z,-1.41
2022-10-24T20:03:52.148Z,-1.46
2022-10-24T20:06:19.948Z,-1.52
2022-10-24T20:08:47.715Z,-1.51
2022-10-24T20:11:16.114Z,-1.49
2022-10-24T20:13:44.244Z,-1.57
2022-10-24T20:16:11.365Z,-1.56
2022-10-24T20:18:39.191Z,-1.53
2022-10-24T20:21:08.446Z,-1.56
2022-10-24T20:23:36.667Z,-1.54
2022-10-24T20:26:10.884Z,-1.49
2022-10-24T20:28:43.376Z,-1.63
2022-10-24T20:31:26.327Z,-1.66
2022-10-24T20:33:53.551Z,-1.69
2022-10-24T20:36:23.309Z,-1.62
2022-10-24T20:38:50.493Z,-1.71
2022-10-24T20:41:17.804Z,-1.77
2022-10-24T20:43:45.053Z,-1.77
2022-10-24T20:46:12.161Z,-1.80
2022-10-24T20:48:39.459Z,-1.78
2022-10-24T20:51:10.623Z,-1.84
2022-10-24T20:53:37.998Z,-1.92
2022-10-24T20:56:10.837Z,-1.96
2022-10-24T20:58:39.570Z,-1.97
2022-10-24T21:01:11.939Z,-2.02
2022-10-24T21:03:39.508Z,-2.01
2022-10-24T21:06:14.048Z,-1.94
2022-10-24T21:08:41.102Z,-1.99
2022-10-24T21:11:08.122Z,-2.09
2022-10-24T21:13:35.096Z,-2.14
2022-10-24T21:16:02.355Z,-2.18
2022-10-24T21:18:29.320Z,-2.24
2022-10-24T21:20:56.389Z,-2.28
2022-10-24T21:23:23.401Z,-2.27
2022-10-24T21:25:50.337Z,-2.28
2022-10-24T21:28:17.493Z,-2.28
2022-10-24T21:30:44.420Z,-2.33
2022-10-24T21:33:11.395Z,-2.38
2022-10-24T21:35:39.562Z,-2.38
2022-10-24T21:38:06.704Z,-2.45
2022-10-24T21:40:33.645Z,-2.48
2022-10-24T21:43:01.924Z,-2.54
2022-10-24T21:45:30.804Z,-2.47
2022-10-24T21:47:57.788Z,-2.51
2022-10-24T21:50:24.733Z,-2.54
2022-10-24T21:52:51.791Z,-2.58
2022-10-24T21:55:18.763Z,-2.66
2022-10-24T21:57:45.773Z,-2.65
2022-10-24T22:00:13.578Z,-2.59
2022-10-24T22:02:40.626Z,-2.65
2022-10-24T22:05:07.815Z,-2.72
2022-10-24T22:07:34.997Z,-2.74
2022-10-24T22:10:01.853Z,-2.73
2022-10-24T22:12:30.525Z,-2.75
2022-10-24T22:14:57.591Z,-2.81
2022-10-24T22:17:24.507Z,-2.85
2022-10-24T22:19:51.479Z,-2.89
2022-10-24T22:22:18.555Z,-2.86
2022-10-24T22:24:45.625Z,-2.84
2022-10-24T22:27:12.696Z,-2.86
2022-10-24T22:29:39.620Z,-2.84
2022-10-24T22:32:06.931Z,-2.82
2022-10-24T22:34:34.252Z,-2.83
2022-10-24T22:37:22.470Z,-2.86
2022-10-24T22:39:50.020Z,-2.88
2022-10-24T22:42:19.316Z,-2.93
2022-10-24T22:44:47.925Z,-2.90
2022-10-24T22:47:37.070Z,-2.89
2022-10-24T22:50:28.931Z,-2.88
2022-10-24T22:52:56.327Z,-2.88
2022-10-24T22:55:34.934Z,-2.90
2022-10-24T22:58:02.160Z,-2.92
2022-10-24T23:00:29.794Z,-2.93
2022-10-24T23:03:21.021Z,-2.87
2022-10-24T23:05:54.787Z,-2.91
2022-10-24T23:08:47.894Z,-2.92
2022-10-24T23:11:15.161Z,-2.93
2022-10-24T23:13:43.080Z,-2.93
2022-10-24T23:16:36.623Z,-2.87
2022-10-24T23:19:18.894Z,-2.94
2022-10-24T23:21:56.371Z,-2.91
2022-10-24T23:24:23.703Z,-2.95
2022-10-24T23:27:11.904Z,-2.95
2022-10-24T23:29:42.006Z,-3.04
2022-10-24T23:32:22.471Z,-3.05
2022-10-24T23:34:50.267Z,-3.09
2022-10-24T23:37:39.566Z,-3.03
2022-10-24T23:40:32.799Z,-3.07
2022-10-24T23:43:00.414Z,-3.08
2022-10-24T23:45:31.916Z,-3.08
2022-10-24T23:48:11.674Z,-3.10
2022-10-24T23:51:02.863Z,-3.09
2022-10-24T23:53:53.027Z,-3.15
2022-10-24T23:56:27.663Z,-3.16
2022-10-24T23:58:55.080Z,-3.13
